createdAt,value
2018-03-16T00:01:22.527Z,98537.51
2018-03-16T00:03:49.564Z,98542.45
2018-03-16T00:06:16.544Z,98543.22
2018-03-16T00:08:42.889Z,98546.67
2018-03-16T00:11:09.160Z,98543.77
2018-03-16T00:13:35.464Z,98540.34
2018-03-16T00:16:01.841Z,98542.97
2018-03-16T00:18:28.866Z,98549.27
2018-03-16T00:20:55.159Z,98542.12
2018-03-16T00:23:21.482Z,98546.80
2018-03-16T00:25:47.847Z,98535.65
2018-03-16T00:28:14.115Z,98543.33
2018-03-16T00:30:41.142Z,98537.00
2018-03-16T00:33:07.461Z,98540.92
2018-03-16T00:35:33.789Z,98534.70
2018-03-16T00:38:00.087Z,98534.69
2018-03-16T00:40:26.447Z,98535.46
2018-03-16T00:42:52.769Z,98533.91
2018-03-16T00:45:19.109Z,98540.70
2018-03-16T00:47:45.446Z,98535.11
2018-03-16T00:50:11.768Z,98535.69
2018-03-16T00:52:38.016Z,98529.36
2018-03-16T00:55:04.288Z,98533.55
2018-03-16T00:57:31.328Z,98538.63
2018-03-16T00:59:58.381Z,98538.02
2018-03-16T01:02:24.707Z,98541.55
2018-03-16T01:04:51.793Z,98537.31
2018-03-16T01:07:18.101Z,98537.95
2018-03-16T01:09:44.396Z,98545.72
2018-03-16T01:12:10.707Z,98546.94
2018-03-16T01:14:36.990Z,98547.13
2018-03-16T01:17:03.265Z,98545.11
2018-03-16T01:19:29.569Z,98551.37
2018-03-16T01:21:55.836Z,98540.64
2018-03-16T01:24:22.137Z,98540.52
2018-03-16T01:26:48.472Z,98534.30
2018-03-16T01:29:14.759Z,98535.08
2018-03-16T01:31:41.072Z,98529.03
2018-03-16T01:34:07.372Z,98528.06
2018-03-16T01:36:33.656Z,98526.06
2018-03-16T01:38:59.984Z,98513.21
2018-03-16T01:41:27.045Z,98521.34
2018-03-16T01:43:53.340Z,98515.75
2018-03-16T01:46:19.652Z,98514.97
2018-03-16T01:48:45.971Z,98516.31
2018-03-16T01:51:12.315Z,98516.59
2018-03-16T01:53:38.612Z,98514.81
2018-03-16T01:56:04.942Z,98513.00
2018-03-16T01:58:31.232Z,98515.48
2018-03-16T02:00:57.534Z,98522.47
2018-03-16T02:03:23.833Z,98516.02
2018-03-16T02:05:50.412Z,98513.03
2018-03-16T02:08:16.672Z,98516.69
2018-03-16T02:10:43.692Z,98511.53
2018-03-16T02:13:09.967Z,98511.31
2018-03-16T02:15:36.247Z,98509.34
2018-03-16T02:18:02.557Z,98514.91
2018-03-16T02:20:28.858Z,98515.63
2018-03-16T02:22:55.134Z,98516.69
2018-03-16T02:25:21.453Z,98515.59
2018-03-16T02:30:14.012Z,98520.02
2018-03-16T02:32:40.342Z,98517.45
2018-03-16T02:35:06.663Z,98524.05
2018-03-16T02:37:33.945Z,98522.69
2018-03-16T02:42:26.592Z,98506.95
2018-03-16T02:44:52.908Z,98502.63
2018-03-16T02:47:19.252Z,98500.36
2018-03-16T02:49:45.610Z,98497.98
2018-03-16T02:52:11.927Z,98501.13
2018-03-16T02:54:38.226Z,98502.95
2018-03-16T02:57:04.540Z,98513.91
2018-03-16T02:59:30.805Z,98507.92
2018-03-16T03:01:57.115Z,98517.13
2018-03-16T03:04:23.381Z,98517.66
2018-03-16T03:06:49.708Z,98520.05
2018-03-16T03:09:16.013Z,98519.02
2018-03-16T03:11:42.264Z,98521.96
2018-03-16T03:14:08.568Z,98520.14
2018-03-16T03:16:34.883Z,98524.23
2018-03-16T03:19:01.225Z,98529.64
2018-03-16T03:21:27.535Z,98535.08
2018-03-16T03:23:54.604Z,98530.34
2018-03-16T03:26:20.846Z,98528.27
2018-03-16T03:28:47.208Z,98532.74
2018-03-16T03:31:13.506Z,98537.48
2018-03-16T03:33:39.784Z,98533.27
2018-03-16T03:36:06.105Z,98532.44
2018-03-16T03:38:32.437Z,98543.38
2018-03-16T03:40:58.735Z,98536.07
2018-03-16T03:43:25.035Z,98531.96
2018-03-16T03:45:51.292Z,98538.41
2018-03-16T03:48:17.614Z,98530.03
2018-03-16T03:50:43.963Z,98527.30
2018-03-16T03:53:10.284Z,98526.82
2018-03-16T03:55:36.585Z,98524.41
2018-03-16T03:58:03.649Z,98521.31
2018-03-16T04:00:29.964Z,98518.52
2018-03-16T04:02:57.012Z,98516.98
2018-03-16T04:05:24.088Z,98512.30
2018-03-16T04:07:50.361Z,98510.75
2018-03-16T04:10:16.650Z,98509.34
2018-03-16T04:12:43.003Z,98503.81
2018-03-16T04:15:09.312Z,98508.84
2018-03-16T04:17:35.588Z,98508.30
2018-03-16T04:20:01.871Z,98507.47
2018-03-16T04:22:28.161Z,98517.48
2018-03-16T04:24:55.174Z,98511.30
2018-03-16T04:27:21.479Z,98518.41
2018-03-16T04:29:47.845Z,98506.77
2018-03-16T04:32:14.134Z,98512.57
2018-03-16T04:34:40.479Z,98515.56
2018-03-16T04:37:06.835Z,98509.36
2018-03-16T04:39:33.269Z,98507.59
2018-03-16T04:41:59.564Z,98510.27
2018-03-16T04:44:25.897Z,98511.76
2018-03-16T04:46:52.226Z,98513.04
2018-03-16T04:49:18.556Z,98519.98
2018-03-16T04:51:44.888Z,98520.89
2018-03-16T04:54:11.900Z,98514.41
2018-03-16T04:56:38.982Z,98525.78
2018-03-16T04:59:05.351Z,98513.31
2018-03-16T05:01:31.680Z,98526.44
2018-03-16T05:03:58.014Z,98521.21
2018-03-16T05:06:24.334Z,98521.50
2018-03-16T05:08:50.676Z,98524.78
2018-03-16T05:11:16.970Z,98516.80
2018-03-16T05:13:43.301Z,98506.23
2018-03-16T05:16:09.636Z,98508.18
2018-03-16T05:18:36.002Z,98507.73
2018-03-16T05:21:02.327Z,98500.40
2018-03-16T05:23:28.653Z,98503.86
2018-03-16T05:25:55.003Z,98502.43
2018-03-16T05:28:21.291Z,98506.30
2018-03-16T05:30:47.647Z,98507.63
2018-03-16T05:33:14.029Z,98511.67
2018-03-16T05:35:41.086Z,98508.14
2018-03-16T05:38:07.440Z,98508.64
2018-03-16T05:40:33.724Z,98509.88
2018-03-16T05:43:00.763Z,98515.38
2018-03-16T05:45:27.056Z,98515.03
2018-03-16T05:47:53.328Z,98518.19
2018-03-16T05:50:19.634Z,98514.89
2018-03-16T05:52:45.890Z,98517.26
2018-03-16T05:55:12.936Z,98515.69
2018-03-16T05:57:39.957Z,98517.17
2018-03-16T06:00:06.254Z,98517.53
2018-03-16T06:02:32.552Z,98523.13
2018-03-16T06:04:59.650Z,98524.22
2018-03-16T06:07:25.947Z,98525.52
2018-03-16T06:09:52.287Z,98515.81
2018-03-16T06:12:18.587Z,98515.64
2018-03-16T06:14:45.702Z,98525.79
2018-03-16T06:17:11.951Z,98515.88
2018-03-16T06:19:38.247Z,98520.20
2018-03-16T06:22:04.546Z,98519.16
2018-03-16T06:24:31.544Z,98526.53
2018-03-16T06:26:57.869Z,98523.13
2018-03-16T06:29:24.194Z,98526.20
2018-03-16T06:31:50.466Z,98531.83
2018-03-16T06:34:16.792Z,98529.11
2018-03-16T06:36:43.074Z,98528.07
2018-03-16T06:39:09.405Z,98524.28
2018-03-16T06:41:35.701Z,98530.63
2018-03-16T06:44:02.733Z,98531.89
2018-03-16T06:46:29.018Z,98527.75
2018-03-16T06:48:55.354Z,98533.05
2018-03-16T06:51:21.629Z,98532.03
2018-03-16T06:53:48.647Z,98530.97
2018-03-16T06:56:14.951Z,98531.06
2018-03-16T06:58:41.234Z,98531.31
2018-03-16T07:01:07.511Z,98534.59
2018-03-16T07:03:33.795Z,98534.71
2018-03-16T07:06:00.087Z,98536.58
2018-03-16T07:08:26.347Z,98536.09
2018-03-16T07:10:52.641Z,98540.90
2018-03-16T07:13:19.498Z,98542.22
2018-03-16T07:15:45.771Z,98538.46
2018-03-16T07:18:12.827Z,98539.59
2018-03-16T07:20:39.864Z,98545.66
2018-03-16T07:23:06.898Z,98552.63
2018-03-16T07:25:33.168Z,98557.11
2018-03-16T07:27:59.500Z,98554.89
2018-03-16T07:30:25.824Z,98564.34
2018-03-16T07:32:52.258Z,98565.25
2018-03-16T07:35:18.522Z,98564.87
2018-03-16T07:37:44.852Z,98560.00
2018-03-16T07:40:11.147Z,98561.44
2018-03-16T07:42:37.453Z,98570.04
2018-03-16T07:45:03.796Z,98562.20
2018-03-16T07:47:30.819Z,98566.47
2018-03-16T07:49:57.907Z,98566.55
2018-03-16T07:52:24.195Z,98566.02
2018-03-16T07:54:50.479Z,98570.80
2018-03-16T07:57:16.743Z,98572.73
2018-03-16T07:59:43.087Z,98579.66
2018-03-16T08:02:10.292Z,98574.70
2018-03-16T08:04:36.568Z,98577.77
2018-03-16T08:07:02.875Z,98582.86
2018-03-16T08:09:29.155Z,98579.92
2018-03-16T08:11:56.246Z,98578.77
2018-03-16T08:14:22.477Z,98579.84
2018-03-16T08:16:48.780Z,98582.02
2018-03-16T08:19:15.024Z,98582.80
2018-03-16T08:21:41.312Z,98583.13
2018-03-16T08:24:08.372Z,98583.61
2018-03-16T08:26:34.647Z,98586.09
2018-03-16T08:29:00.900Z,98579.79
2018-03-16T08:31:27.231Z,98588.79
2018-03-16T08:33:53.500Z,98591.98
2018-03-16T08:36:19.776Z,98591.52
2018-03-16T08:38:46.093Z,98590.39
2018-03-16T08:41:12.387Z,98583.28
2018-03-16T08:43:39.433Z,98593.38
2018-03-16T08:46:05.770Z,98592.91
2018-03-16T08:48:32.105Z,98584.10
2018-03-16T08:50:59.128Z,98587.88
2018-03-16T08:53:26.188Z,98589.05
2018-03-16T08:55:53.248Z,98594.05
2018-03-16T08:58:19.533Z,98598.25
2018-03-16T09:00:45.837Z,98591.91
2018-03-16T09:03:12.128Z,98591.53
2018-03-16T09:05:39.180Z,98600.98
2018-03-16T09:08:06.239Z,98598.11
2018-03-16T09:10:32.528Z,98596.94
2018-03-16T09:12:58.822Z,98603.34
2018-03-16T09:15:25.112Z,98599.22
2018-03-16T09:17:52.156Z,98604.52
2018-03-16T09:20:18.435Z,98599.86
2018-03-16T09:22:44.713Z,98600.58
2018-03-16T09:25:11.781Z,98603.46
2018-03-16T09:27:38.107Z,98605.95
2018-03-16T09:30:05.147Z,98607.44
2018-03-16T09:32:31.446Z,98607.78
2018-03-16T09:34:57.751Z,98602.25
2018-03-16T09:37:24.068Z,98608.61
2018-03-16T09:39:50.328Z,98603.41
2018-03-16T09:42:16.600Z,98602.94
2018-03-16T09:44:43.628Z,98607.30
2018-03-16T09:47:09.942Z,98611.94
2018-03-16T09:49:36.238Z,98612.82
2018-03-16T09:52:02.593Z,98616.11
2018-03-16T09:54:28.954Z,98617.24
2018-03-16T09:56:55.236Z,98615.83
2018-03-16T09:59:21.556Z,98615.83
2018-03-16T10:01:47.861Z,98614.70
2018-03-16T10:04:14.922Z,98614.70
2018-03-16T10:06:42.030Z,98617.79
2018-03-16T10:09:21.295Z,98619.38
2018-03-16T10:11:48.303Z,98621.14
2018-03-16T10:14:14.615Z,98630.30
2018-03-16T10:16:40.882Z,98633.31
2018-03-16T10:19:07.207Z,98625.70
2018-03-16T10:21:33.469Z,98627.95
2018-03-16T10:24:00.493Z,98635.64
2018-03-16T10:26:26.815Z,98634.14
2018-03-16T10:28:53.097Z,98628.07
2018-03-16T10:31:19.411Z,98631.01
2018-03-16T10:33:45.700Z,98630.61
2018-03-16T10:36:11.983Z,98634.87
2018-03-16T10:38:38.260Z,98628.73
2018-03-16T10:41:04.581Z,98630.55
2018-03-16T10:43:30.927Z,98632.31
2018-03-16T10:45:57.253Z,98635.69
2018-03-16T10:48:23.552Z,98638.39
2018-03-16T10:50:49.832Z,98642.85
2018-03-16T10:53:16.080Z,98644.14
2018-03-16T10:55:43.147Z,98640.60
2018-03-16T10:58:09.493Z,98641.86
2018-03-16T11:00:41.975Z,98642.33
2018-03-16T11:03:08.291Z,98642.33
2018-03-16T11:05:40.854Z,98642.95
2018-03-16T11:08:07.182Z,98639.23
2018-03-16T11:10:34.282Z,98643.86
2018-03-16T11:13:00.583Z,98637.88
2018-03-16T11:15:26.903Z,98643.56
2018-03-16T11:17:53.211Z,98645.11
2018-03-16T11:20:20.240Z,98653.80
2018-03-16T11:22:46.535Z,98647.38
2018-03-16T11:25:12.857Z,98650.61
2018-03-16T11:27:39.164Z,98649.89
2018-03-16T11:30:05.493Z,98643.36
2018-03-16T11:32:31.791Z,98642.19
2018-03-16T11:34:58.151Z,98644.24
2018-03-16T11:37:25.246Z,98642.31
2018-03-16T11:39:51.534Z,98644.41
2018-03-16T11:42:18.575Z,98649.34
2018-03-16T11:44:46.192Z,98644.63
2018-03-16T11:47:12.476Z,98648.81
2018-03-16T11:49:38.772Z,98650.83
2018-03-16T11:52:05.030Z,98649.16
2018-03-16T11:54:32.082Z,98648.62
2018-03-16T11:56:59.093Z,98648.80
2018-03-16T11:59:25.377Z,98646.22
2018-03-16T12:01:51.727Z,98648.39
2018-03-16T12:04:18.121Z,98647.97
2018-03-16T12:06:45.143Z,98636.11
2018-03-16T12:09:11.435Z,98636.16
2018-03-16T12:11:37.738Z,98640.08
2018-03-16T12:14:04.063Z,98638.28
2018-03-16T12:16:31.077Z,98648.18
2018-03-16T12:18:57.366Z,98650.20
2018-03-16T12:21:23.707Z,98643.43
2018-03-16T12:23:50.034Z,98649.14
2018-03-16T12:26:16.323Z,98643.30
2018-03-16T12:28:49.814Z,98643.80
2018-03-16T12:31:09.674Z,98648.20
2018-03-16T12:33:35.956Z,98641.31
2018-03-16T12:36:02.275Z,98641.98
2018-03-16T12:38:29.101Z,98638.46
2018-03-16T12:40:56.182Z,98644.72
2018-03-16T12:43:22.482Z,98643.55
2018-03-16T12:45:49.555Z,98653.27
2018-03-16T12:48:15.856Z,98657.03
2018-03-16T12:50:42.156Z,98652.66
2018-03-16T12:53:08.456Z,98663.45
2018-03-16T12:55:34.783Z,98660.80
2018-03-16T12:58:01.110Z,98661.94
2018-03-16T13:00:27.441Z,98667.72
2018-03-16T13:02:53.809Z,98664.52
2018-03-16T13:05:20.129Z,98663.23
2018-03-16T13:07:46.434Z,98662.53
2018-03-16T13:10:12.747Z,98663.45
2018-03-16T13:12:39.820Z,98667.84
2018-03-16T13:15:06.190Z,98671.42
2018-03-16T13:17:32.511Z,98664.77
2018-03-16T13:19:58.888Z,98665.11
2018-03-16T13:22:26.008Z,98665.11
2018-03-16T13:24:52.362Z,98674.80
2018-03-16T13:27:19.434Z,98678.66
2018-03-16T13:29:45.764Z,98676.52
2018-03-16T13:32:12.068Z,98688.72
2018-03-16T13:34:39.121Z,98682.95
2018-03-16T13:37:06.179Z,98687.53
2018-03-16T13:39:33.258Z,98689.45
2018-03-16T13:41:59.537Z,98687.78
2018-03-16T13:44:25.858Z,98692.84
2018-03-16T13:46:52.200Z,98701.21
2018-03-16T13:49:18.548Z,98700.17
2018-03-16T13:51:45.651Z,98706.33
2018-03-16T13:54:11.972Z,98708.64
2018-03-16T13:56:38.314Z,98703.70
2018-03-16T13:59:04.689Z,98706.02
2018-03-16T14:01:31.700Z,98708.05
2018-03-16T14:03:58.062Z,98704.93
2018-03-16T14:06:25.172Z,98707.58
2018-03-16T14:08:51.456Z,98704.59
2018-03-16T14:11:18.541Z,98704.33
2018-03-16T14:13:44.824Z,98696.95
2018-03-16T14:16:11.997Z,98703.16
2018-03-16T14:18:38.265Z,98698.91
2018-03-16T14:21:04.559Z,98702.20
2018-03-16T14:23:30.840Z,98702.45
2018-03-16T14:25:57.173Z,98708.88
2018-03-16T14:28:23.475Z,98707.36
2018-03-16T14:30:49.775Z,98708.14
2018-03-16T14:33:16.808Z,98711.44
2018-03-16T14:35:43.876Z,98717.25
2018-03-16T14:38:10.205Z,98714.24
2018-03-16T14:40:36.497Z,98720.82
2018-03-16T14:43:03.813Z,98721.88
2018-03-16T14:45:30.148Z,98725.19
2018-03-16T14:47:56.430Z,98721.36
2018-03-16T14:50:23.527Z,98719.75
2018-03-16T14:52:49.854Z,98723.13
2018-03-16T14:55:16.280Z,98717.06
2018-03-16T14:57:42.594Z,98716.59
2018-03-16T15:00:09.729Z,98727.01
2018-03-16T15:02:36.744Z,98725.68
2018-03-16T15:05:03.075Z,98727.84
2018-03-16T15:07:29.647Z,98730.14
2018-03-16T15:09:56.722Z,98724.80
2018-03-16T15:12:23.077Z,98727.27
2018-03-16T15:14:49.391Z,98728.83
2018-03-16T15:17:15.752Z,98730.73
2018-03-16T15:19:42.047Z,98733.11
2018-03-16T15:22:09.373Z,98734.31
2018-03-16T15:24:36.406Z,98737.99
2018-03-16T15:27:02.748Z,98742.95
2018-03-16T15:29:29.865Z,98745.58
2018-03-16T15:31:56.204Z,98736.48
2018-03-16T15:34:22.560Z,98744.41
2018-03-16T15:36:48.960Z,98741.92
2018-03-16T15:39:15.327Z,98741.72
2018-03-16T15:41:42.366Z,98741.80
2018-03-16T15:44:08.679Z,98738.91
2018-03-16T15:46:35.001Z,98745.03
2018-03-16T15:49:01.430Z,98745.63
2018-03-16T15:51:27.669Z,98751.87
2018-03-16T15:53:55.496Z,98749.86
2018-03-16T15:56:21.781Z,98753.33
2018-03-16T15:58:48.083Z,98759.96
2018-03-16T16:01:14.515Z,98762.92
2018-03-16T16:03:40.715Z,98764.27
2018-03-16T16:06:07.034Z,98769.73
2018-03-16T16:08:33.365Z,98779.14
2018-03-16T16:10:59.715Z,98779.77
2018-03-16T16:13:26.012Z,98783.94
2018-03-16T16:15:53.048Z,98786.67
2018-03-16T16:18:19.374Z,98786.01
2018-03-16T16:20:45.676Z,98790.72
2018-03-16T16:23:12.088Z,98794.31
2018-03-16T16:25:38.379Z,98798.48
2018-03-16T16:28:04.725Z,98793.72
2018-03-16T16:30:31.004Z,98795.89
2018-03-16T16:32:57.334Z,98794.47
2018-03-16T16:35:23.632Z,98794.84
2018-03-16T16:37:49.957Z,98803.44
2018-03-16T16:40:16.953Z,98798.52
2018-03-16T16:42:43.285Z,98804.53
2018-03-16T16:45:09.633Z,98809.38
2018-03-16T16:47:35.940Z,98819.42
2018-03-16T16:50:02.265Z,98822.77
2018-03-16T16:52:28.609Z,98821.06
2018-03-16T16:54:54.986Z,98816.64
2018-03-16T16:57:21.265Z,98818.06
2018-03-16T16:59:47.680Z,98808.91
2018-03-16T17:02:13.985Z,98832.85
2018-03-16T17:04:40.982Z,98831.05
2018-03-16T17:07:07.235Z,98836.73
2018-03-16T17:09:33.562Z,98833.08
2018-03-16T17:11:59.854Z,98849.48
2018-03-16T17:14:26.218Z,98845.61
2018-03-16T17:16:52.542Z,98847.95
2018-03-16T17:19:18.838Z,98848.14
2018-03-16T17:21:45.190Z,98848.05
2018-03-16T17:24:11.516Z,98856.27
2018-03-16T17:26:37.937Z,98861.94
2018-03-16T17:29:04.232Z,98871.92
2018-03-16T17:31:30.506Z,98871.95
2018-03-16T17:33:56.848Z,98872.72
2018-03-16T17:36:23.168Z,98875.94
2018-03-16T17:38:49.505Z,98879.47
2018-03-16T17:41:15.867Z,98881.30
2018-03-16T17:43:42.230Z,98887.16
2018-03-16T17:46:08.591Z,98887.66
2018-03-16T17:48:34.913Z,98895.45
2018-03-16T17:51:01.203Z,98886.52
2018-03-16T17:53:28.322Z,98898.36
2018-03-16T17:55:54.573Z,98888.20
2018-03-16T17:58:20.870Z,98898.40
2018-03-16T18:00:47.197Z,98905.52
2018-03-16T18:03:13.550Z,98915.84
2018-03-16T18:05:39.841Z,98907.31
2018-03-16T18:08:06.174Z,98911.36
2018-03-16T18:10:32.480Z,98913.44
2018-03-16T18:12:59.532Z,98921.03
2018-03-16T18:15:26.609Z,98927.67
2018-03-16T18:17:52.975Z,98928.46
2018-03-16T18:20:19.272Z,98920.55
2018-03-16T18:22:45.642Z,98925.56
2018-03-16T18:25:11.980Z,98930.51
2018-03-16T18:27:38.276Z,98946.28
2018-03-16T18:30:04.622Z,98940.43
2018-03-16T18:32:31.029Z,98950.05
2018-03-16T18:34:57.313Z,98958.33
2018-03-16T18:37:23.603Z,98957.08
2018-03-16T18:39:49.939Z,98951.55
2018-03-16T18:42:16.295Z,98958.42
2018-03-16T18:44:42.657Z,98955.30
2018-03-16T18:47:09.823Z,98965.08
2018-03-16T18:49:36.222Z,98967.19
2018-03-16T18:52:02.530Z,98962.13
2018-03-16T18:54:28.941Z,98959.09
2018-03-16T18:56:55.324Z,98957.27
2018-03-16T18:59:23.148Z,98961.36
2018-03-16T19:01:49.559Z,98963.84
2018-03-16T19:04:16.072Z,98963.77
2018-03-16T19:06:43.199Z,98959.16
2018-03-16T19:09:09.538Z,98958.77
2018-03-16T19:11:35.838Z,98966.73
2018-03-16T19:14:02.192Z,98970.05
2018-03-16T19:16:28.527Z,98973.38
2018-03-16T19:18:55.056Z,98971.09
2018-03-16T19:21:21.525Z,98973.23
2018-03-16T19:23:48.583Z,98979.16
2018-03-16T19:26:14.919Z,98980.91
2018-03-16T19:28:41.265Z,98986.45
2018-03-16T19:31:07.621Z,98985.66
2018-03-16T19:33:33.997Z,98981.13
2018-03-16T19:36:01.072Z,98993.52
2018-03-16T19:38:27.443Z,98991.99
2018-03-16T19:40:53.736Z,98991.50
2018-03-16T19:43:20.156Z,98984.83
2018-03-16T19:45:47.182Z,98985.55
2018-03-16T19:48:14.257Z,98988.80
2018-03-16T19:50:40.624Z,98991.05
2018-03-16T19:53:06.929Z,98990.73
2018-03-16T19:55:33.261Z,98983.61
2018-03-16T19:57:59.584Z,98986.75
2018-03-16T20:00:25.983Z,98953.91
2018-03-16T20:02:53.131Z,98991.28
2018-03-16T20:05:20.178Z,98994.92
2018-03-16T20:07:47.246Z,99006.00
2018-03-16T20:10:13.605Z,98997.28
2018-03-16T20:12:39.934Z,99012.88
2018-03-16T20:15:06.291Z,99008.83
2018-03-16T20:17:32.671Z,99019.00
2018-03-16T20:19:59.036Z,99005.80
2018-03-16T20:22:25.527Z,99016.19
2018-03-16T20:24:52.580Z,99016.35
2018-03-16T20:27:19.759Z,99011.85
2018-03-16T20:29:46.092Z,99011.23
2018-03-16T20:32:12.420Z,99008.95
2018-03-16T20:34:38.743Z,99012.26
2018-03-16T20:37:05.125Z,99008.02
2018-03-16T20:39:31.573Z,99013.08
2018-03-16T20:41:57.909Z,99010.11
2018-03-16T20:44:25.040Z,99014.92
2018-03-16T20:46:51.451Z,99017.36
2018-03-16T20:49:18.897Z,99015.67
2018-03-16T20:51:45.193Z,99013.05
2018-03-16T20:54:12.250Z,99012.84
2018-03-16T20:56:39.315Z,99017.23
2018-03-16T20:59:05.599Z,99025.46
2018-03-16T21:01:32.026Z,99032.92
2018-03-16T21:03:58.344Z,99026.98
2018-03-16T21:06:24.649Z,99033.31
2018-03-16T21:08:50.958Z,99026.16
2018-03-16T21:11:17.289Z,99025.11
2018-03-16T21:13:43.638Z,99037.81
2018-03-16T21:16:09.932Z,99039.28
2018-03-16T21:18:37.005Z,99045.66
2018-03-16T21:21:03.336Z,99044.95
2018-03-16T21:23:29.638Z,99042.48
2018-03-16T21:25:56.753Z,99043.20
2018-03-16T21:28:30.146Z,99051.73
2018-03-16T21:30:56.503Z,99049.56
2018-03-16T21:33:22.784Z,99054.70
2018-03-16T21:35:49.135Z,99057.48
2018-03-16T21:38:15.424Z,99064.43
2018-03-16T21:40:42.474Z,99066.00
2018-03-16T21:43:09.520Z,99063.48
2018-03-16T21:45:35.848Z,99065.30
2018-03-16T21:48:02.889Z,99068.73
2018-03-16T21:50:29.970Z,99057.83
2018-03-16T21:53:03.555Z,99068.69
2018-03-16T21:55:30.797Z,99070.66
2018-03-16T21:57:57.856Z,99068.77
2018-03-16T22:00:24.218Z,99073.66
2018-03-16T22:02:50.572Z,99075.30
2018-03-16T22:05:16.995Z,99081.73
2018-03-16T22:07:43.355Z,99078.44
2018-03-16T22:10:09.667Z,99033.84
2018-03-16T22:12:35.982Z,99078.65
2018-03-16T22:15:02.268Z,99082.30
2018-03-16T22:17:28.571Z,99080.88
2018-03-16T22:19:54.871Z,99072.89
2018-03-16T22:22:21.191Z,99068.92
2018-03-16T22:24:47.455Z,99069.84
2018-03-16T22:27:13.768Z,99068.20
2018-03-16T22:29:40.047Z,99075.77
2018-03-16T22:32:07.134Z,99091.76
2018-03-16T22:34:33.475Z,99094.53
2018-03-16T22:36:59.791Z,99099.81
2018-03-16T22:39:26.087Z,99097.62
2018-03-16T22:41:53.158Z,99099.14
2018-03-16T22:44:19.473Z,99092.30
2018-03-16T22:46:46.513Z,99085.25
2018-03-16T22:49:12.801Z,99087.76
2018-03-16T22:51:39.076Z,99093.50
2018-03-16T22:54:06.110Z,99087.82
2018-03-16T22:56:32.418Z,99096.27
2018-03-16T22:58:58.718Z,99097.15
2018-03-16T23:01:25.008Z,99095.31
2018-03-16T23:03:52.071Z,99095.34
2018-03-16T23:06:18.349Z,99096.11
2018-03-16T23:08:44.653Z,99082.41
2018-03-16T23:11:10.973Z,99095.05
2018-03-16T23:13:37.262Z,99096.02
2018-03-16T23:16:03.628Z,99082.82
2018-03-16T23:18:29.961Z,99098.97
2018-03-16T23:20:56.269Z,99090.84
2018-03-16T23:23:23.292Z,99091.65
2018-03-16T23:25:49.606Z,99102.42
2018-03-16T23:28:15.875Z,99090.06
2018-03-16T23:30:42.165Z,99105.82
2018-03-16T23:33:08.452Z,99103.50
2018-03-16T23:35:34.799Z,99093.91
2018-03-16T23:38:01.108Z,99095.94
2018-03-16T23:40:28.119Z,99098.06
2018-03-16T23:42:54.432Z,99084.23
2018-03-16T23:45:20.706Z,99086.53
2018-03-16T23:47:46.996Z,99080.39
2018-03-16T23:50:13.260Z,99078.23
2018-03-16T23:52:39.566Z,99089.49
2018-03-16T23:55:05.852Z,99086.73
2018-03-16T23:57:32.136Z,99096.73
2018-03-16T23:59:58.438Z,99100.21
